sensor_id;sensor_type;location;lat;lon;timestamp;P1;durP1;ratioP1;P2;durP2;ratioP2
26157;SDS011;67284;44.782;10.282;2023-12-20T00:00:28;14.10;;;5.72;;
26157;SDS011;67284;44.782;10.282;2023-12-20T00:05:20;10.75;;;5.63;;
26157;SDS011;67284;44.782;10.282;2023-12-20T00:10:12;9.63;;;4.57;;
26157;SDS011;67284;44.782;10.282;2023-12-20T00:15:05;12.27;;;5.20;;
26157;SDS011;67284;44.782;10.282;2023-12-20T00:19:57;9.48;;;4.80;;
26157;SDS011;67284;44.782;10.282;2023-12-20T00:24:49;9.63;;;4.97;;
26157;SDS011;67284;44.782;10.282;2023-12-20T00:29:41;8.55;;;4.80;;
26157;SDS011;67284;44.782;10.282;2023-12-20T00:34:34;8.88;;;5.35;;
26157;SDS011;67284;44.782;10.282;2023-12-20T00:39:26;6.75;;;4.65;;
26157;SDS011;67284;44.782;10.282;2023-12-20T00:44:18;9.68;;;5.93;;
26157;SDS011;67284;44.782;10.282;2023-12-20T00:49:09;14.75;;;7.50;;
26157;SDS011;67284;44.782;10.282;2023-12-20T00:54:01;10.20;;;6.13;;
26157;SDS011;67284;44.782;10.282;2023-12-20T00:58:54;9.10;;;5.63;;
26157;SDS011;67284;44.782;10.282;2023-12-20T01:03:45;12.82;;;5.30;;
26157;SDS011;67284;44.782;10.282;2023-12-20T01:08:37;8.27;;;4.70;;
26157;SDS011;67284;44.782;10.282;2023-12-20T01:13:29;6.88;;;4.20;;
26157;SDS011;67284;44.782;10.282;2023-12-20T01:18:21;5.68;;;3.67;;
26157;SDS011;67284;44.782;10.282;2023-12-20T01:23:13;6.53;;;3.88;;
26157;SDS011;67284;44.782;10.282;2023-12-20T01:28:05;6.93;;;3.50;;
26157;SDS011;67284;44.782;10.282;2023-12-20T01:32:59;7.70;;;4.25;;
26157;SDS011;67284;44.782;10.282;2023-12-20T01:37:51;10.88;;;5.63;;
26157;SDS011;67284;44.782;10.282;2023-12-20T01:42:43;7.72;;;4.82;;
26157;SDS011;67284;44.782;10.282;2023-12-20T01:47:35;6.88;;;4.15;;
26157;SDS011;67284;44.782;10.282;2023-12-20T01:52:28;7.72;;;4.72;;
26157;SDS011;67284;44.782;10.282;2023-12-20T01:57:19;7.78;;;4.22;;
26157;SDS011;67284;44.782;10.282;2023-12-20T02:02:11;5.78;;;3.90;;
26157;SDS011;67284;44.782;10.282;2023-12-20T02:07:04;5.00;;;3.78;;
26157;SDS011;67284;44.782;10.282;2023-12-20T02:11:57;6.82;;;3.92;;
26157;SDS011;67284;44.782;10.282;2023-12-20T02:16:49;5.15;;;3.63;;
26157;SDS011;67284;44.782;10.282;2023-12-20T02:21:41;6.85;;;3.78;;
26157;SDS011;67284;44.782;10.282;2023-12-20T02:26:33;6.47;;;3.55;;
26157;SDS011;67284;44.782;10.282;2023-12-20T02:31:25;114.05;;;33.58;;
26157;SDS011;67284;44.782;10.282;2023-12-20T02:36:17;40.03;;;14.43;;
26157;SDS011;67284;44.782;10.282;2023-12-20T02:41:09;18.95;;;8.32;;
26157;SDS011;67284;44.782;10.282;2023-12-20T02:46:01;14.30;;;6.90;;
26157;SDS011;67284;44.782;10.282;2023-12-20T02:50:52;8.15;;;4.28;;
26157;SDS011;67284;44.782;10.282;2023-12-20T02:55:44;7.30;;;4.05;;
26157;SDS011;67284;44.782;10.282;2023-12-20T03:00:36;5.95;;;3.28;;
26157;SDS011;67284;44.782;10.282;2023-12-20T03:05:28;7.20;;;3.58;;
26157;SDS011;67284;44.782;10.282;2023-12-20T03:10:20;8.02;;;3.88;;
26157;SDS011;67284;44.782;10.282;2023-12-20T03:15:17;7.53;;;4.45;;
26157;SDS011;67284;44.782;10.282;2023-12-20T03:20:09;8.30;;;3.35;;
26157;SDS011;67284;44.782;10.282;2023-12-20T03:25:01;5.53;;;3.45;;
26157;SDS011;67284;44.782;10.282;2023-12-20T03:29:53;7.95;;;4.50;;
26157;SDS011;67284;44.782;10.282;2023-12-20T03:34:45;8.25;;;5.13;;
26157;SDS011;67284;44.782;10.282;2023-12-20T03:39:37;8.90;;;4.93;;
26157;SDS011;67284;44.782;10.282;2023-12-20T03:44:29;10.07;;;5.00;;
26157;SDS011;67284;44.782;10.282;2023-12-20T03:49:21;8.05;;;5.10;;
26157;SDS011;67284;44.782;10.282;2023-12-20T03:54:13;10.50;;;4.70;;
26157;SDS011;67284;44.782;10.282;2023-12-20T03:59:05;10.10;;;5.00;;
26157;SDS011;67284;44.782;10.282;2023-12-20T04:03:56;10.23;;;5.40;;
26157;SDS011;67284;44.782;10.282;2023-12-20T04:08:48;7.93;;;5.10;;
26157;SDS011;67284;44.782;10.282;2023-12-20T04:13:40;8.30;;;4.65;;
26157;SDS011;67284;44.782;10.282;2023-12-20T04:18:32;10.77;;;5.20;;
26157;SDS011;67284;44.782;10.282;2023-12-20T04:23:24;7.82;;;5.22;;
26157;SDS011;67284;44.782;10.282;2023-12-20T04:28:16;9.10;;;5.10;;
26157;SDS011;67284;44.782;10.282;2023-12-20T04:33:08;11.35;;;5.20;;
26157;SDS011;67284;44.782;10.282;2023-12-20T04:38:00;9.07;;;6.15;;
26157;SDS011;67284;44.782;10.282;2023-12-20T04:42:52;10.15;;;5.28;;
26157;SDS011;67284;44.782;10.282;2023-12-20T04:47:44;11.27;;;5.80;;
26157;SDS011;67284;44.782;10.282;2023-12-20T04:52:36;11.80;;;6.53;;
26157;SDS011;67284;44.782;10.282;2023-12-20T04:57:28;10.60;;;6.40;;
26157;SDS011;67284;44.782;10.282;2023-12-20T05:02:20;8.55;;;5.57;;
26157;SDS011;67284;44.782;10.282;2023-12-20T05:07:12;10.75;;;5.70;;
26157;SDS011;67284;44.782;10.282;2023-12-20T05:12:04;10.52;;;5.90;;
26157;SDS011;67284;44.782;10.282;2023-12-20T05:16:56;9.85;;;6.35;;
26157;SDS011;67284;44.782;10.282;2023-12-20T05:21:48;11.90;;;6.40;;
26157;SDS011;67284;44.782;10.282;2023-12-20T05:26:40;8.75;;;5.03;;
26157;SDS011;67284;44.782;10.282;2023-12-20T05:31:31;8.68;;;5.22;;
26157;SDS011;67284;44.782;10.282;2023-12-20T05:36:23;9.60;;;6.20;;
26157;SDS011;67284;44.782;10.282;2023-12-20T05:41:15;13.63;;;6.00;;
26157;SDS011;67284;44.782;10.282;2023-12-20T05:46:08;9.68;;;5.90;;
26157;SDS011;67284;44.782;10.282;2023-12-20T05:51:01;11.50;;;5.97;;
26157;SDS011;67284;44.782;10.282;2023-12-20T05:55:53;11.52;;;5.53;;
26157;SDS011;67284;44.782;10.282;2023-12-20T06:00:45;14.32;;;6.43;;
26157;SDS011;67284;44.782;10.282;2023-12-20T06:05:37;11.27;;;6.32;;
26157;SDS011;67284;44.782;10.282;2023-12-20T06:10:29;14.43;;;7.03;;
26157;SDS011;67284;44.782;10.282;2023-12-20T06:15:21;12.32;;;6.65;;
26157;SDS011;67284;44.782;10.282;2023-12-20T06:20:13;10.27;;;6.88;;
26157;SDS011;67284;44.782;10.282;2023-12-20T06:25:05;9.20;;;6.28;;
26157;SDS011;67284;44.782;10.282;2023-12-20T06:29:58;9.85;;;5.93;;
26157;SDS011;67284;44.782;10.282;2023-12-20T06:34:50;10.73;;;6.45;;
26157;SDS011;67284;44.782;10.282;2023-12-20T06:39:42;11.93;;;6.35;;
26157;SDS011;67284;44.782;10.282;2023-12-20T06:44:34;13.40;;;7.20;;
26157;SDS011;67284;44.782;10.282;2023-12-20T06:49:26;13.15;;;6.55;;
26157;SDS011;67284;44.782;10.282;2023-12-20T06:54:18;14.43;;;7.47;;
26157;SDS011;67284;44.782;10.282;2023-12-20T06:59:10;9.95;;;6.60;;
26157;SDS011;67284;44.782;10.282;2023-12-20T07:04:02;12.32;;;7.88;;
26157;SDS011;67284;44.782;10.282;2023-12-20T07:08:54;14.68;;;7.65;;
26157;SDS011;67284;44.782;10.282;2023-12-20T07:13:46;19.20;;;8.25;;
26157;SDS011;67284;44.782;10.282;2023-12-20T07:18:38;15.13;;;7.97;;
26157;SDS011;67284;44.782;10.282;2023-12-20T07:23:29;14.45;;;8.02;;
26157;SDS011;67284;44.782;10.282;2023-12-20T07:28:21;11.73;;;7.82;;
26157;SDS011;67284;44.782;10.282;2023-12-20T07:33:13;19.27;;;8.23;;
26157;SDS011;67284;44.782;10.282;2023-12-20T07:38:05;13.05;;;7.10;;
26157;SDS011;67284;44.782;10.282;2023-12-20T07:42:58;12.77;;;7.65;;
26157;SDS011;67284;44.782;10.282;2023-12-20T07:47:50;16.83;;;9.13;;
26157;SDS011;67284;44.782;10.282;2023-12-20T07:52:42;19.50;;;7.95;;
26157;SDS011;67284;44.782;10.282;2023-12-20T07:57:33;19.60;;;8.43;;
26157;SDS011;67284;44.782;10.282;2023-12-20T08:02:25;19.40;;;8.35;;
26157;SDS011;67284;44.782;10.282;2023-12-20T08:07:17;17.50;;;8.45;;
26157;SDS011;67284;44.782;10.282;2023-12-20T08:12:09;12.85;;;7.32;;
26157;SDS011;67284;44.782;10.282;2023-12-20T08:17:01;14.80;;;7.45;;
26157;SDS011;67284;44.782;10.282;2023-12-20T08:21:53;11.80;;;6.93;;
26157;SDS011;67284;44.782;10.282;2023-12-20T08:26:45;9.98;;;6.70;;
26157;SDS011;67284;44.782;10.282;2023-12-20T08:31:37;16.42;;;7.65;;
26157;SDS011;67284;44.782;10.282;2023-12-20T08:36:32;13.40;;;6.93;;
26157;SDS011;67284;44.782;10.282;2023-12-20T08:41:24;12.57;;;6.30;;
26157;SDS011;67284;44.782;10.282;2023-12-20T08:46:16;13.98;;;7.00;;
26157;SDS011;67284;44.782;10.282;2023-12-20T08:51:11;13.57;;;7.20;;
26157;SDS011;67284;44.782;10.282;2023-12-20T08:56:03;14.32;;;7.60;;
26157;SDS011;67284;44.782;10.282;2023-12-20T09:00:55;14.32;;;6.53;;
26157;SDS011;67284;44.782;10.282;2023-12-20T09:05:47;30.95;;;7.55;;
26157;SDS011;67284;44.782;10.282;2023-12-20T09:10:39;10.32;;;5.70;;
26157;SDS011;67284;44.782;10.282;2023-12-20T09:15:32;11.98;;;6.28;;
26157;SDS011;67284;44.782;10.282;2023-12-20T09:20:27;11.63;;;5.80;;
26157;SDS011;67284;44.782;10.282;2023-12-20T09:25:19;9.63;;;5.65;;
26157;SDS011;67284;44.782;10.282;2023-12-20T09:30:12;10.15;;;5.53;;
26157;SDS011;67284;44.782;10.282;2023-12-20T09:35:15;14.13;;;7.25;;
26157;SDS011;67284;44.782;10.282;2023-12-20T09:40:08;7.82;;;5.80;;
26157;SDS011;67284;44.782;10.282;2023-12-20T09:45:05;15.43;;;6.88;;
26157;SDS011;67284;44.782;10.282;2023-12-20T09:50:00;12.13;;;6.85;;
26157;SDS011;67284;44.782;10.282;2023-12-20T09:54:53;13.10;;;7.03;;
26157;SDS011;67284;44.782;10.282;2023-12-20T09:59:47;18.50;;;7.97;;
26157;SDS011;67284;44.782;10.282;2023-12-20T10:04:39;12.35;;;6.93;;
26157;SDS011;67284;44.782;10.282;2023-12-20T10:09:39;20.88;;;8.13;;
26157;SDS011;67284;44.782;10.282;2023-12-20T10:14:32;16.40;;;6.68;;
26157;SDS011;67284;44.782;10.282;2023-12-20T10:19:25;15.02;;;9.25;;
26157;SDS011;67284;44.782;10.282;2023-12-20T10:24:19;18.70;;;9.55;;
26157;SDS011;67284;44.782;10.282;2023-12-20T10:29:14;17.77;;;9.75;;
26157;SDS011;67284;44.782;10.282;2023-12-20T10:34:06;21.38;;;10.00;;
26157;SDS011;67284;44.782;10.282;2023-12-20T10:38:58;21.42;;;10.07;;
26157;SDS011;67284;44.782;10.282;2023-12-20T10:43:51;23.17;;;9.07;;
26157;SDS011;67284;44.782;10.282;2023-12-20T10:48:43;17.60;;;8.55;;
26157;SDS011;67284;44.782;10.282;2023-12-20T10:53:37;20.50;;;8.77;;
26157;SDS011;67284;44.782;10.282;2023-12-20T10:58:32;17.58;;;9.27;;
26157;SDS011;67284;44.782;10.282;2023-12-20T11:03:26;18.00;;;9.15;;
26157;SDS011;67284;44.782;10.282;2023-12-20T11:13:28;14.32;;;7.82;;
26157;SDS011;67284;44.782;10.282;2023-12-20T11:18:32;15.70;;;7.65;;
26157;SDS011;67284;44.782;10.282;2023-12-20T11:23:27;17.38;;;9.18;;
26157;SDS011;67284;44.782;10.282;2023-12-20T11:28:27;15.98;;;7.55;;
26157;SDS011;67284;44.782;10.282;2023-12-20T11:33:24;17.33;;;9.15;;
26157;SDS011;67284;44.782;10.282;2023-12-20T11:38:22;15.98;;;8.60;;
26157;SDS011;67284;44.782;10.282;2023-12-20T11:48:39;19.27;;;10.43;;
26157;SDS011;67284;44.782;10.282;2023-12-20T11:53:32;22.50;;;10.35;;
26157;SDS011;67284;44.782;10.282;2023-12-20T11:58:28;17.88;;;9.98;;
26157;SDS011;67284;44.782;10.282;2023-12-20T12:03:21;15.98;;;9.48;;
26157;SDS011;67284;44.782;10.282;2023-12-20T12:08:17;20.73;;;9.90;;
26157;SDS011;67284;44.782;10.282;2023-12-20T12:13:10;21.17;;;9.85;;
26157;SDS011;67284;44.782;10.282;2023-12-20T12:18:04;16.92;;;9.43;;
26157;SDS011;67284;44.782;10.282;2023-12-20T12:23:00;21.65;;;9.82;;
26157;SDS011;67284;44.782;10.282;2023-12-20T12:27:57;21.88;;;10.48;;
26157;SDS011;67284;44.782;10.282;2023-12-20T12:32:50;21.08;;;10.10;;
26157;SDS011;67284;44.782;10.282;2023-12-20T12:37:43;16.77;;;9.52;;
26157;SDS011;67284;44.782;10.282;2023-12-20T12:42:36;16.55;;;9.32;;
26157;SDS011;67284;44.782;10.282;2023-12-20T12:47:29;20.80;;;11.48;;
26157;SDS011;67284;44.782;10.282;2023-12-20T12:52:21;19.13;;;10.48;;
26157;SDS011;67284;44.782;10.282;2023-12-20T12:57:14;23.27;;;10.55;;
26157;SDS011;67284;44.782;10.282;2023-12-20T13:02:08;20.60;;;10.45;;
26157;SDS011;67284;44.782;10.282;2023-12-20T13:07:00;20.10;;;10.60;;
26157;SDS011;67284;44.782;10.282;2023-12-20T13:11:52;17.48;;;10.60;;
26157;SDS011;67284;44.782;10.282;2023-12-20T13:16:46;18.80;;;11.55;;
26157;SDS011;67284;44.782;10.282;2023-12-20T13:21:38;31.98;;;14.05;;
26157;SDS011;67284;44.782;10.282;2023-12-20T13:26:30;26.10;;;11.52;;
26157;SDS011;67284;44.782;10.282;2023-12-20T13:31:21;24.08;;;11.13;;
26157;SDS011;67284;44.782;10.282;2023-12-20T13:36:14;19.02;;;10.65;;
26157;SDS011;67284;44.782;10.282;2023-12-20T13:41:05;20.85;;;11.55;;
26157;SDS011;67284;44.782;10.282;2023-12-20T13:45:58;22.98;;;12.77;;
26157;SDS011;67284;44.782;10.282;2023-12-20T13:50:50;27.13;;;12.25;;
26157;SDS011;67284;44.782;10.282;2023-12-20T13:55:42;20.00;;;9.82;;
26157;SDS011;67284;44.782;10.282;2023-12-20T14:00:34;18.48;;;11.15;;
26157;SDS011;67284;44.782;10.282;2023-12-20T14:05:28;22.30;;;10.55;;
26157;SDS011;67284;44.782;10.282;2023-12-20T14:10:20;18.60;;;10.63;;
26157;SDS011;67284;44.782;10.282;2023-12-20T14:15:13;15.40;;;9.68;;
26157;SDS011;67284;44.782;10.282;2023-12-20T14:20:06;24.52;;;12.07;;
26157;SDS011;67284;44.782;10.282;2023-12-20T14:24:59;18.60;;;11.48;;
26157;SDS011;67284;44.782;10.282;2023-12-20T14:29:51;23.63;;;11.73;;
26157;SDS011;67284;44.782;10.282;2023-12-20T14:34:43;17.73;;;10.60;;
26157;SDS011;67284;44.782;10.282;2023-12-20T14:39:35;19.17;;;10.30;;
26157;SDS011;67284;44.782;10.282;2023-12-20T14:44:30;24.70;;;12.23;;
26157;SDS011;67284;44.782;10.282;2023-12-20T14:49:23;20.85;;;10.73;;
26157;SDS011;67284;44.782;10.282;2023-12-20T14:54:16;18.92;;;11.15;;
26157;SDS011;67284;44.782;10.282;2023-12-20T14:59:07;21.50;;;10.73;;
26157;SDS011;67284;44.782;10.282;2023-12-20T15:03:59;20.95;;;10.60;;
26157;SDS011;67284;44.782;10.282;2023-12-20T15:08:52;21.77;;;11.68;;
26157;SDS011;67284;44.782;10.282;2023-12-20T15:13:44;31.77;;;14.05;;
26157;SDS011;67284;44.782;10.282;2023-12-20T15:18:38;27.92;;;12.65;;
26157;SDS011;67284;44.782;10.282;2023-12-20T15:23:30;26.88;;;13.65;;
26157;SDS011;67284;44.782;10.282;2023-12-20T15:28:23;34.75;;;14.25;;
26157;SDS011;67284;44.782;10.282;2023-12-20T15:33:15;25.77;;;12.77;;
26157;SDS011;67284;44.782;10.282;2023-12-20T15:38:07;31.08;;;15.50;;
26157;SDS011;67284;44.782;10.282;2023-12-20T15:43:00;27.98;;;16.10;;
26157;SDS011;67284;44.782;10.282;2023-12-20T15:47:52;33.30;;;15.27;;
26157;SDS011;67284;44.782;10.282;2023-12-20T15:52:44;35.55;;;17.50;;
26157;SDS011;67284;44.782;10.282;2023-12-20T15:57:35;32.83;;;17.25;;
26157;SDS011;67284;44.782;10.282;2023-12-20T16:02:42;36.28;;;18.35;;
26157;SDS011;67284;44.782;10.282;2023-12-20T16:07:34;33.35;;;16.15;;
26157;SDS011;67284;44.782;10.282;2023-12-20T16:12:27;40.33;;;19.23;;
26157;SDS011;67284;44.782;10.282;2023-12-20T16:17:18;27.20;;;16.08;;
26157;SDS011;67284;44.782;10.282;2023-12-20T16:22:11;32.00;;;18.30;;
26157;SDS011;67284;44.782;10.282;2023-12-20T16:27:03;41.15;;;20.85;;
26157;SDS011;67284;44.782;10.282;2023-12-20T16:31:55;37.63;;;19.80;;
26157;SDS011;67284;44.782;10.282;2023-12-20T16:36:48;41.20;;;20.58;;
26157;SDS011;67284;44.782;10.282;2023-12-20T16:41:44;34.33;;;20.00;;
26157;SDS011;67284;44.782;10.282;2023-12-20T16:46:36;37.00;;;19.35;;
26157;SDS011;67284;44.782;10.282;2023-12-20T16:51:28;41.35;;;19.05;;
26157;SDS011;67284;44.782;10.282;2023-12-20T16:56:21;33.08;;;16.02;;
26157;SDS011;67284;44.782;10.282;2023-12-20T17:01:13;31.40;;;17.23;;
26157;SDS011;67284;44.782;10.282;2023-12-20T17:06:07;29.17;;;16.20;;
26157;SDS011;67284;44.782;10.282;2023-12-20T17:10:59;33.60;;;15.95;;
26157;SDS011;67284;44.782;10.282;2023-12-20T17:15:51;30.48;;;17.38;;
26157;SDS011;67284;44.782;10.282;2023-12-20T17:20:43;28.35;;;15.95;;
26157;SDS011;67284;44.782;10.282;2023-12-20T17:25:35;25.75;;;13.65;;
26157;SDS011;67284;44.782;10.282;2023-12-20T17:30:31;28.15;;;16.05;;
26157;SDS011;67284;44.782;10.282;2023-12-20T17:35:23;27.10;;;15.23;;
26157;SDS011;67284;44.782;10.282;2023-12-20T17:40:15;23.52;;;14.48;;
26157;SDS011;67284;44.782;10.282;2023-12-20T17:45:07;28.40;;;15.27;;
26157;SDS011;67284;44.782;10.282;2023-12-20T17:49:59;26.52;;;16.17;;
26157;SDS011;67284;44.782;10.282;2023-12-20T17:54:51;29.17;;;15.70;;
26157;SDS011;67284;44.782;10.282;2023-12-20T17:59:43;28.52;;;15.15;;
26157;SDS011;67284;44.782;10.282;2023-12-20T18:04:35;32.22;;;16.13;;
26157;SDS011;67284;44.782;10.282;2023-12-20T18:09:27;23.50;;;14.75;;
26157;SDS011;67284;44.782;10.282;2023-12-20T18:14:19;25.05;;;15.65;;
26157;SDS011;67284;44.782;10.282;2023-12-20T18:19:12;28.08;;;15.95;;
26157;SDS011;67284;44.782;10.282;2023-12-20T18:24:04;30.65;;;16.80;;
26157;SDS011;67284;44.782;10.282;2023-12-20T18:29:02;29.80;;;16.02;;
26157;SDS011;67284;44.782;10.282;2023-12-20T18:33:54;33.97;;;17.58;;
26157;SDS011;67284;44.782;10.282;2023-12-20T18:38:46;26.98;;;15.10;;
26157;SDS011;67284;44.782;10.282;2023-12-20T18:43:37;34.10;;;17.88;;
26157;SDS011;67284;44.782;10.282;2023-12-20T18:48:29;33.22;;;18.00;;
26157;SDS011;67284;44.782;10.282;2023-12-20T18:53:21;33.42;;;17.63;;
26157;SDS011;67284;44.782;10.282;2023-12-20T18:58:13;31.10;;;18.40;;
26157;SDS011;67284;44.782;10.282;2023-12-20T19:03:05;27.35;;;15.90;;
26157;SDS011;67284;44.782;10.282;2023-12-20T19:07:58;30.10;;;17.52;;
26157;SDS011;67284;44.782;10.282;2023-12-20T19:12:50;35.38;;;20.17;;
26157;SDS011;67284;44.782;10.282;2023-12-20T19:17:42;32.85;;;18.23;;
26157;SDS011;67284;44.782;10.282;2023-12-20T19:22:34;31.15;;;19.23;;
26157;SDS011;67284;44.782;10.282;2023-12-20T19:27:26;34.55;;;19.77;;
26157;SDS011;67284;44.782;10.282;2023-12-20T19:32:18;30.70;;;17.77;;
26157;SDS011;67284;44.782;10.282;2023-12-20T19:37:10;33.08;;;19.38;;
26157;SDS011;67284;44.782;10.282;2023-12-20T19:42:02;39.63;;;19.05;;
26157;SDS011;67284;44.782;10.282;2023-12-20T19:46:54;39.25;;;19.48;;
26157;SDS011;67284;44.782;10.282;2023-12-20T19:51:46;39.78;;;19.88;;
26157;SDS011;67284;44.782;10.282;2023-12-20T19:56:37;34.00;;;20.67;;
26157;SDS011;67284;44.782;10.282;2023-12-20T20:01:29;43.78;;;21.60;;
26157;SDS011;67284;44.782;10.282;2023-12-20T20:06:21;34.88;;;19.95;;
26157;SDS011;67284;44.782;10.282;2023-12-20T20:11:13;42.25;;;22.98;;
26157;SDS011;67284;44.782;10.282;2023-12-20T20:16:20;40.15;;;21.17;;
26157;SDS011;67284;44.782;10.282;2023-12-20T20:21:12;33.05;;;19.67;;
26157;SDS011;67284;44.782;10.282;2023-12-20T20:26:03;36.08;;;23.70;;
26157;SDS011;67284;44.782;10.282;2023-12-20T20:30:55;44.05;;;24.98;;
26157;SDS011;67284;44.782;10.282;2023-12-20T20:35:48;39.35;;;23.45;;
26157;SDS011;67284;44.782;10.282;2023-12-20T20:40:39;38.10;;;22.90;;
26157;SDS011;67284;44.782;10.282;2023-12-20T20:45:31;40.53;;;20.70;;
26157;SDS011;67284;44.782;10.282;2023-12-20T20:50:23;43.70;;;22.50;;
26157;SDS011;67284;44.782;10.282;2023-12-20T20:55:15;36.60;;;22.88;;
26157;SDS011;67284;44.782;10.282;2023-12-20T21:00:09;37.35;;;22.77;;
26157;SDS011;67284;44.782;10.282;2023-12-20T21:05:01;38.55;;;20.25;;
26157;SDS011;67284;44.782;10.282;2023-12-20T21:09:53;34.92;;;20.88;;
26157;SDS011;67284;44.782;10.282;2023-12-20T21:14:46;34.28;;;18.38;;
26157;SDS011;67284;44.782;10.282;2023-12-20T21:19:38;33.70;;;21.60;;
26157;SDS011;67284;44.782;10.282;2023-12-20T21:24:30;36.80;;;20.80;;
26157;SDS011;67284;44.782;10.282;2023-12-20T21:29:22;31.83;;;19.92;;
26157;SDS011;67284;44.782;10.282;2023-12-20T21:34:13;30.73;;;17.48;;
26157;SDS011;67284;44.782;10.282;2023-12-20T21:39:06;28.58;;;17.60;;
26157;SDS011;67284;44.782;10.282;2023-12-20T21:44:00;30.05;;;17.73;;
26157;SDS011;67284;44.782;10.282;2023-12-20T21:48:52;27.73;;;16.42;;
26157;SDS011;67284;44.782;10.282;2023-12-20T21:53:43;24.33;;;16.23;;
26157;SDS011;67284;44.782;10.282;2023-12-20T21:58:36;21.10;;;14.23;;
26157;SDS011;67284;44.782;10.282;2023-12-20T22:03:29;24.73;;;14.93;;
26157;SDS011;67284;44.782;10.282;2023-12-20T22:08:21;17.00;;;12.45;;
26157;SDS011;67284;44.782;10.282;2023-12-20T22:13:13;25.23;;;14.43;;
26157;SDS011;67284;44.782;10.282;2023-12-20T22:18:05;24.63;;;14.88;;
26157;SDS011;67284;44.782;10.282;2023-12-20T22:22:57;17.17;;;12.68;;
26157;SDS011;67284;44.782;10.282;2023-12-20T22:27:49;22.63;;;13.57;;
26157;SDS011;67284;44.782;10.282;2023-12-20T22:32:40;21.02;;;12.73;;
26157;SDS011;67284;44.782;10.282;2023-12-20T22:37:32;17.63;;;12.32;;
26157;SDS011;67284;44.782;10.282;2023-12-20T22:42:24;18.08;;;12.10;;
26157;SDS011;67284;44.782;10.282;2023-12-20T22:47:16;19.20;;;11.57;;
26157;SDS011;67284;44.782;10.282;2023-12-20T22:52:08;19.45;;;11.63;;
26157;SDS011;67284;44.782;10.282;2023-12-20T22:57:00;15.25;;;11.20;;
26157;SDS011;67284;44.782;10.282;2023-12-20T23:01:52;24.02;;;11.70;;
26157;SDS011;67284;44.782;10.282;2023-12-20T23:06:44;14.43;;;9.73;;
26157;SDS011;67284;44.782;10.282;2023-12-20T23:11:35;15.40;;;9.55;;
26157;SDS011;67284;44.782;10.282;2023-12-20T23:16:27;16.33;;;10.80;;
26157;SDS011;67284;44.782;10.282;2023-12-20T23:21:19;15.68;;;10.25;;
26157;SDS011;67284;44.782;10.282;2023-12-20T23:26:11;14.73;;;10.15;;
26157;SDS011;67284;44.782;10.282;2023-12-20T23:31:03;15.65;;;10.18;;
26157;SDS011;67284;44.782;10.282;2023-12-20T23:35:55;17.05;;;9.82;;
26157;SDS011;67284;44.782;10.282;2023-12-20T23:40:47;16.40;;;10.48;;
26157;SDS011;67284;44.782;10.282;2023-12-20T23:45:39;18.52;;;10.57;;
26157;SDS011;67284;44.782;10.282;2023-12-20T23:50:31;17.23;;;10.27;;
26157;SDS011;67284;44.782;10.282;2023-12-20T23:55:23;16.60;;;10.63;;
